Alicia, AR (72410)

2:19 AM CST on January 17, 2017 (GMT -0600)
Cash | | Change Station

Elev 243 ft 35.81 °N, 90.93 °W | Updated 1 minute ago

Clear
Clear
55.0 °F
Feels Like 55.0 °F
N
12.0
Wind Variable Wind from WSW
Gusts 14.0 mph

Today
High -- | Low -- °F
--% Chance of Precip.
Yesterday
High -- | Low -- °F
Precip. -- in
Pressure 30.01 in
Visibility 10.0 miles
Clouds Clear
Dew Point 55 °F
Humidity 100%
Rainfall 0.00 in
Snow Depth Not available.
7:13 AM 5:16 PM
Waning Gibbous, 74% visible
METAR KM19 170756Z AUTO 26008KT 10SM CLR 13/09 A2999 RMK AO2 SLP162 T01280094
Pressure 30.01 in
Visibility 10.0 miles
Clouds Clear
Dew Point 55 °F
Humidity 100%
Rainfall 0.00 in
Snow Depth Not available.
7:13 AM 5:16 PM
Waning Gibbous, 74% visible
METAR KM19 170756Z AUTO 26008KT 10SM CLR 13/09 A2999 RMK AO2 SLP162 T01280094

Get Your Daily Forecast Email!

Thanks for signing up!

Be on the lookout for a verification email in your inbox.

You'll start receiving the daily forecast at 8 AM.

×

10-Day Weather Forecast

Almanac

Astronomy

Jan. 17, 2017 Rise Set
Actual Time
Civil Twilight
Nautical Twilight
Astronomical Twilight
Moon
Length of Visible Light
Length of Day
Tomorrow will be .
, % of the Moon is Illuminated

Today's Extremes

State Highs State Lows

Community

WunderPhotos

Upload Photos

1,962,540 photos uploaded!

WunderBlog® & News

Nearby

Air Quality

  Air Quality AQ Index Pollutant
Not available.

Snow Depth

Station Depth Elevation

Earthquake Activity

City Distance Mag. Time & Date
Minimum magnitude displayed is 2.5.

Coastal Water Temperatures

Place Temperature

Stations

Nearby Weather Stations

Station Location Temp. Windchill Dew Point Humidity Wind Precip. Elev Updated Type
                   

Watches & Warnings

There are currently no watches in effect.